sensor_id;sensor_type;location;lat;lon;timestamp;P1;durP1;ratioP1;P2;durP2;ratioP2
1376;SDS011;682;52.502;13.488;2022-12-18T00:01:44;43.80;;;18.27;;
1376;SDS011;682;52.502;13.488;2022-12-18T00:04:14;40.95;;;18.38;;
1376;SDS011;682;52.502;13.488;2022-12-18T00:06:46;36.45;;;17.70;;
1376;SDS011;682;52.502;13.488;2022-12-18T00:09:13;47.60;;;18.92;;
1376;SDS011;682;52.502;13.488;2022-12-18T00:11:40;35.45;;;19.05;;
1376;SDS011;682;52.502;13.488;2022-12-18T00:14:09;40.65;;;17.77;;
1376;SDS011;682;52.502;13.488;2022-12-18T00:16:44;53.65;;;19.15;;
1376;SDS011;682;52.502;13.488;2022-12-18T00:19:12;60.70;;;20.65;;
1376;SDS011;682;52.502;13.488;2022-12-18T00:21:40;45.53;;;19.75;;
1376;SDS011;682;52.502;13.488;2022-12-18T00:24:11;47.05;;;20.75;;
1376;SDS011;682;52.502;13.488;2022-12-18T00:26:39;37.20;;;18.30;;
1376;SDS011;682;52.502;13.488;2022-12-18T00:29:08;41.42;;;19.08;;
1376;SDS011;682;52.502;13.488;2022-12-18T00:31:39;40.63;;;19.40;;
1376;SDS011;682;52.502;13.488;2022-12-18T00:34:10;42.58;;;19.52;;
1376;SDS011;682;52.502;13.488;2022-12-18T00:36:38;40.20;;;20.35;;
1376;SDS011;682;52.502;13.488;2022-12-18T00:39:06;41.67;;;20.40;;
1376;SDS011;682;52.502;13.488;2022-12-18T00:41:34;42.42;;;19.77;;
1376;SDS011;682;52.502;13.488;2022-12-18T00:44:19;42.28;;;19.80;;
1376;SDS011;682;52.502;13.488;2022-12-18T00:46:46;39.75;;;19.67;;
1376;SDS011;682;52.502;13.488;2022-12-18T00:49:19;41.08;;;19.75;;
1376;SDS011;682;52.502;13.488;2022-12-18T00:51:46;56.28;;;21.23;;
1376;SDS011;682;52.502;13.488;2022-12-18T00:54:14;38.30;;;20.08;;
1376;SDS011;682;52.502;13.488;2022-12-18T00:56:42;49.17;;;21.00;;
1376;SDS011;682;52.502;13.488;2022-12-18T00:59:10;43.83;;;20.02;;
1376;SDS011;682;52.502;13.488;2022-12-18T01:01:39;46.28;;;21.85;;
1376;SDS011;682;52.502;13.488;2022-12-18T01:04:07;43.17;;;21.13;;
1376;SDS011;682;52.502;13.488;2022-12-18T01:06:36;38.47;;;20.17;;
1376;SDS011;682;52.502;13.488;2022-12-18T01:09:03;43.42;;;20.75;;
1376;SDS011;682;52.502;13.488;2022-12-18T01:11:31;44.80;;;21.83;;
1376;SDS011;682;52.502;13.488;2022-12-18T01:14:02;43.60;;;23.08;;
1376;SDS011;682;52.502;13.488;2022-12-18T01:16:29;44.75;;;20.88;;
1376;SDS011;682;52.502;13.488;2022-12-18T01:18:56;50.70;;;22.13;;
1376;SDS011;682;52.502;13.488;2022-12-18T01:21:24;48.22;;;22.60;;
1376;SDS011;682;52.502;13.488;2022-12-18T01:24:00;51.95;;;25.25;;
1376;SDS011;682;52.502;13.488;2022-12-18T01:26:29;43.42;;;23.08;;
1376;SDS011;682;52.502;13.488;2022-12-18T01:28:56;43.92;;;21.00;;
1376;SDS011;682;52.502;13.488;2022-12-18T01:31:30;44.17;;;22.85;;
1376;SDS011;682;52.502;13.488;2022-12-18T01:34:00;47.80;;;22.40;;
1376;SDS011;682;52.502;13.488;2022-12-18T01:36:30;54.40;;;23.40;;
1376;SDS011;682;52.502;13.488;2022-12-18T01:39:11;51.33;;;24.40;;
1376;SDS011;682;52.502;13.488;2022-12-18T01:41:39;49.70;;;22.75;;
1376;SDS011;682;52.502;13.488;2022-12-18T01:47:20;54.58;;;25.70;;
1376;SDS011;682;52.502;13.488;2022-12-18T01:49:52;57.47;;;25.45;;
1376;SDS011;682;52.502;13.488;2022-12-18T01:52:22;54.05;;;26.73;;
1376;SDS011;682;52.502;13.488;2022-12-18T01:54:57;59.58;;;25.58;;
1376;SDS011;682;52.502;13.488;2022-12-18T01:57:26;54.40;;;26.40;;
1376;SDS011;682;52.502;13.488;2022-12-18T02:00:04;56.47;;;25.17;;
1376;SDS011;682;52.502;13.488;2022-12-18T02:02:40;54.30;;;24.02;;
1376;SDS011;682;52.502;13.488;2022-12-18T02:05:09;55.35;;;27.42;;
1376;SDS011;682;52.502;13.488;2022-12-18T02:07:39;61.63;;;27.63;;
1376;SDS011;682;52.502;13.488;2022-12-18T02:10:17;59.22;;;27.00;;
1376;SDS011;682;52.502;13.488;2022-12-18T02:12:56;71.85;;;28.65;;
1376;SDS011;682;52.502;13.488;2022-12-18T02:15:31;61.25;;;27.27;;
1376;SDS011;682;52.502;13.488;2022-12-18T02:18:08;57.55;;;26.60;;
1376;SDS011;682;52.502;13.488;2022-12-18T02:20:40;53.88;;;26.42;;
1376;SDS011;682;52.502;13.488;2022-12-18T02:23:23;54.28;;;25.00;;
1376;SDS011;682;52.502;13.488;2022-12-18T02:26:11;59.17;;;25.63;;
1376;SDS011;682;52.502;13.488;2022-12-18T02:28:47;60.63;;;26.15;;
1376;SDS011;682;52.502;13.488;2022-12-18T02:31:19;66.22;;;26.92;;
1376;SDS011;682;52.502;13.488;2022-12-18T02:33:51;59.80;;;27.58;;
1376;SDS011;682;52.502;13.488;2022-12-18T02:36:22;58.63;;;25.83;;
1376;SDS011;682;52.502;13.488;2022-12-18T02:38:54;51.53;;;25.45;;
1376;SDS011;682;52.502;13.488;2022-12-18T02:41:33;51.85;;;25.83;;
1376;SDS011;682;52.502;13.488;2022-12-18T02:44:06;51.05;;;21.90;;
1376;SDS011;682;52.502;13.488;2022-12-18T02:46:36;46.80;;;22.60;;
1376;SDS011;682;52.502;13.488;2022-12-18T02:49:11;58.25;;;23.15;;
1376;SDS011;682;52.502;13.488;2022-12-18T02:51:50;58.88;;;23.20;;
1376;SDS011;682;52.502;13.488;2022-12-18T02:54:22;51.05;;;23.77;;
1376;SDS011;682;52.502;13.488;2022-12-18T02:57:03;51.25;;;24.25;;
1376;SDS011;682;52.502;13.488;2022-12-18T02:59:39;48.15;;;20.67;;
1376;SDS011;682;52.502;13.488;2022-12-18T03:02:17;46.97;;;22.92;;
1376;SDS011;682;52.502;13.488;2022-12-18T03:04:57;56.65;;;26.48;;
1376;SDS011;682;52.502;13.488;2022-12-18T03:07:35;43.83;;;22.77;;
1376;SDS011;682;52.502;13.488;2022-12-18T03:10:16;44.10;;;21.67;;
1376;SDS011;682;52.502;13.488;2022-12-18T03:12:52;57.63;;;22.58;;
1376;SDS011;682;52.502;13.488;2022-12-18T03:15:24;48.10;;;21.05;;
1376;SDS011;682;52.502;13.488;2022-12-18T03:17:59;44.88;;;21.10;;
1376;SDS011;682;52.502;13.488;2022-12-18T03:20:37;54.00;;;23.17;;
1376;SDS011;682;52.502;13.488;2022-12-18T03:23:09;41.95;;;20.75;;
1376;SDS011;682;52.502;13.488;2022-12-18T03:25:41;42.55;;;20.65;;
1376;SDS011;682;52.502;13.488;2022-12-18T03:28:14;43.38;;;21.17;;
1376;SDS011;682;52.502;13.488;2022-12-18T03:30:49;39.03;;;19.70;;
1376;SDS011;682;52.502;13.488;2022-12-18T03:33:23;46.13;;;22.73;;
1376;SDS011;682;52.502;13.488;2022-12-18T03:35:55;43.00;;;20.08;;
1376;SDS011;682;52.502;13.488;2022-12-18T03:38:23;45.00;;;21.30;;
1376;SDS011;682;52.502;13.488;2022-12-18T03:40:56;42.85;;;20.35;;
1376;SDS011;682;52.502;13.488;2022-12-18T03:43:34;40.42;;;21.13;;
1376;SDS011;682;52.502;13.488;2022-12-18T03:46:11;43.33;;;21.60;;
1376;SDS011;682;52.502;13.488;2022-12-18T03:48:51;43.00;;;20.83;;
1376;SDS011;682;52.502;13.488;2022-12-18T03:51:25;48.40;;;21.60;;
1376;SDS011;682;52.502;13.488;2022-12-18T03:54:10;46.90;;;20.50;;
1376;SDS011;682;52.502;13.488;2022-12-18T03:56:40;40.22;;;19.88;;
1376;SDS011;682;52.502;13.488;2022-12-18T03:59:20;46.75;;;21.30;;
1376;SDS011;682;52.502;13.488;2022-12-18T04:01:50;40.03;;;18.60;;
1376;SDS011;682;52.502;13.488;2022-12-18T04:04:19;41.63;;;20.13;;
1376;SDS011;682;52.502;13.488;2022-12-18T04:06:50;46.40;;;21.08;;
1376;SDS011;682;52.502;13.488;2022-12-18T04:09:18;47.58;;;19.10;;
1376;SDS011;682;52.502;13.488;2022-12-18T04:11:50;43.05;;;20.10;;
1376;SDS011;682;52.502;13.488;2022-12-18T04:14:18;42.20;;;20.63;;
1376;SDS011;682;52.502;13.488;2022-12-18T04:16:47;38.53;;;18.92;;
1376;SDS011;682;52.502;13.488;2022-12-18T04:19:15;47.17;;;19.05;;
1376;SDS011;682;52.502;13.488;2022-12-18T04:21:43;45.45;;;20.60;;
1376;SDS011;682;52.502;13.488;2022-12-18T04:24:10;44.05;;;18.38;;
1376;SDS011;682;52.502;13.488;2022-12-18T04:26:42;41.25;;;17.98;;
1376;SDS011;682;52.502;13.488;2022-12-18T04:29:10;39.88;;;18.45;;
1376;SDS011;682;52.502;13.488;2022-12-18T04:31:42;41.15;;;19.38;;
1376;SDS011;682;52.502;13.488;2022-12-18T04:34:10;37.25;;;20.17;;
1376;SDS011;682;52.502;13.488;2022-12-18T04:36:40;39.75;;;19.10;;
1376;SDS011;682;52.502;13.488;2022-12-18T04:39:09;36.15;;;17.65;;
1376;SDS011;682;52.502;13.488;2022-12-18T04:41:36;44.17;;;18.30;;
1376;SDS011;682;52.502;13.488;2022-12-18T04:44:08;40.75;;;20.92;;
1376;SDS011;682;52.502;13.488;2022-12-18T04:46:37;37.97;;;19.15;;
1376;SDS011;682;52.502;13.488;2022-12-18T04:49:10;46.10;;;20.50;;
1376;SDS011;682;52.502;13.488;2022-12-18T04:51:42;42.45;;;20.13;;
1376;SDS011;682;52.502;13.488;2022-12-18T04:54:09;38.58;;;19.13;;
1376;SDS011;682;52.502;13.488;2022-12-18T04:56:36;41.78;;;20.13;;
1376;SDS011;682;52.502;13.488;2022-12-18T04:59:08;42.40;;;19.45;;
1376;SDS011;682;52.502;13.488;2022-12-18T05:01:35;44.72;;;20.88;;
1376;SDS011;682;52.502;13.488;2022-12-18T05:04:02;45.65;;;19.83;;
1376;SDS011;682;52.502;13.488;2022-12-18T05:06:31;37.53;;;18.83;;
1376;SDS011;682;52.502;13.488;2022-12-18T05:09:07;38.03;;;19.20;;
1376;SDS011;682;52.502;13.488;2022-12-18T05:11:34;43.78;;;19.58;;
1376;SDS011;682;52.502;13.488;2022-12-18T05:14:09;38.58;;;20.63;;
1376;SDS011;682;52.502;13.488;2022-12-18T05:16:37;42.97;;;18.92;;
1376;SDS011;682;52.502;13.488;2022-12-18T05:19:09;51.20;;;24.15;;
1376;SDS011;682;52.502;13.488;2022-12-18T05:21:39;56.88;;;22.80;;
1376;SDS011;682;52.502;13.488;2022-12-18T05:24:09;47.25;;;20.45;;
1376;SDS011;682;52.502;13.488;2022-12-18T05:26:36;45.97;;;20.50;;
1376;SDS011;682;52.502;13.488;2022-12-18T05:29:08;44.53;;;21.80;;
1376;SDS011;682;52.502;13.488;2022-12-18T05:31:37;52.63;;;23.05;;
1376;SDS011;682;52.502;13.488;2022-12-18T05:34:09;47.80;;;23.10;;
1376;SDS011;682;52.502;13.488;2022-12-18T05:36:42;54.90;;;24.13;;
1376;SDS011;682;52.502;13.488;2022-12-18T05:39:10;50.97;;;23.13;;
1376;SDS011;682;52.502;13.488;2022-12-18T05:41:37;56.30;;;25.05;;
1376;SDS011;682;52.502;13.488;2022-12-18T05:44:08;45.78;;;21.73;;
1376;SDS011;682;52.502;13.488;2022-12-18T05:46:35;54.28;;;23.30;;
1376;SDS011;682;52.502;13.488;2022-12-18T05:49:07;51.20;;;25.33;;
1376;SDS011;682;52.502;13.488;2022-12-18T05:51:34;55.35;;;24.98;;
1376;SDS011;682;52.502;13.488;2022-12-18T05:54:04;56.20;;;22.85;;
1376;SDS011;682;52.502;13.488;2022-12-18T05:56:33;43.58;;;20.75;;
1376;SDS011;682;52.502;13.488;2022-12-18T05:59:02;57.75;;;24.45;;
1376;SDS011;682;52.502;13.488;2022-12-18T06:01:29;46.92;;;24.25;;
1376;SDS011;682;52.502;13.488;2022-12-18T06:03:56;62.75;;;24.42;;
1376;SDS011;682;52.502;13.488;2022-12-18T06:06:24;64.60;;;28.10;;
1376;SDS011;682;52.502;13.488;2022-12-18T06:08:55;52.75;;;25.00;;
1376;SDS011;682;52.502;13.488;2022-12-18T06:11:25;57.80;;;24.58;;
1376;SDS011;682;52.502;13.488;2022-12-18T06:13:53;52.15;;;21.98;;
1376;SDS011;682;52.502;13.488;2022-12-18T06:16:21;56.58;;;22.73;;
1376;SDS011;682;52.502;13.488;2022-12-18T06:18:52;53.05;;;24.20;;
1376;SDS011;682;52.502;13.488;2022-12-18T06:21:19;42.30;;;20.55;;
1376;SDS011;682;52.502;13.488;2022-12-18T06:23:47;44.47;;;21.30;;
1376;SDS011;682;52.502;13.488;2022-12-18T06:26:18;54.72;;;24.48;;
1376;SDS011;682;52.502;13.488;2022-12-18T06:28:51;45.95;;;23.17;;
1376;SDS011;682;52.502;13.488;2022-12-18T06:31:19;43.17;;;22.13;;
1376;SDS011;682;52.502;13.488;2022-12-18T06:33:55;48.80;;;25.60;;
1376;SDS011;682;52.502;13.488;2022-12-18T06:36:22;49.72;;;24.90;;
1376;SDS011;682;52.502;13.488;2022-12-18T06:38:58;48.88;;;22.02;;
1376;SDS011;682;52.502;13.488;2022-12-18T06:41:27;47.90;;;23.55;;
1376;SDS011;682;52.502;13.488;2022-12-18T06:44:03;53.78;;;23.15;;
1376;SDS011;682;52.502;13.488;2022-12-18T06:46:33;43.53;;;19.83;;
1376;SDS011;682;52.502;13.488;2022-12-18T06:49:00;55.85;;;24.98;;
1376;SDS011;682;52.502;13.488;2022-12-18T06:51:27;45.95;;;21.17;;
1376;SDS011;682;52.502;13.488;2022-12-18T06:53:58;52.40;;;23.25;;
1376;SDS011;682;52.502;13.488;2022-12-18T06:56:25;50.30;;;22.15;;
1376;SDS011;682;52.502;13.488;2022-12-18T06:58:54;49.83;;;22.35;;
1376;SDS011;682;52.502;13.488;2022-12-18T07:01:22;54.20;;;24.00;;
1376;SDS011;682;52.502;13.488;2022-12-18T07:03:51;44.67;;;22.08;;
1376;SDS011;682;52.502;13.488;2022-12-18T07:06:19;76.18;;;35.25;;
1376;SDS011;682;52.502;13.488;2022-12-18T07:08:48;50.92;;;22.42;;
1376;SDS011;682;52.502;13.488;2022-12-18T07:11:17;49.20;;;23.48;;
1376;SDS011;682;52.502;13.488;2022-12-18T07:13:48;51.67;;;23.20;;
1376;SDS011;682;52.502;13.488;2022-12-18T07:16:17;46.20;;;20.27;;
1376;SDS011;682;52.502;13.488;2022-12-18T07:18:54;44.30;;;22.88;;
1376;SDS011;682;52.502;13.488;2022-12-18T07:21:23;54.90;;;24.23;;
1376;SDS011;682;52.502;13.488;2022-12-18T07:23:52;54.13;;;25.55;;
1376;SDS011;682;52.502;13.488;2022-12-18T07:26:24;44.40;;;21.52;;
1376;SDS011;682;52.502;13.488;2022-12-18T07:28:54;51.60;;;22.60;;
1376;SDS011;682;52.502;13.488;2022-12-18T07:31:27;46.42;;;22.10;;
1376;SDS011;682;52.502;13.488;2022-12-18T07:33:54;51.22;;;24.27;;
1376;SDS011;682;52.502;13.488;2022-12-18T07:36:21;54.70;;;24.13;;
1376;SDS011;682;52.502;13.488;2022-12-18T07:38:51;54.10;;;25.15;;
1376;SDS011;682;52.502;13.488;2022-12-18T07:41:23;46.13;;;23.10;;
1376;SDS011;682;52.502;13.488;2022-12-18T07:43:50;49.42;;;22.73;;
1376;SDS011;682;52.502;13.488;2022-12-18T07:46:17;56.75;;;25.08;;
1376;SDS011;682;52.502;13.488;2022-12-18T07:48:51;45.03;;;21.17;;
1376;SDS011;682;52.502;13.488;2022-12-18T07:51:19;50.53;;;23.58;;
1376;SDS011;682;52.502;13.488;2022-12-18T07:53:53;43.97;;;21.77;;
1376;SDS011;682;52.502;13.488;2022-12-18T07:56:23;43.10;;;20.58;;
1376;SDS011;682;52.502;13.488;2022-12-18T07:58:53;42.53;;;20.90;;
1376;SDS011;682;52.502;13.488;2022-12-18T08:01:28;50.03;;;22.13;;
1376;SDS011;682;52.502;13.488;2022-12-18T08:03:57;44.75;;;22.92;;
1376;SDS011;682;52.502;13.488;2022-12-18T08:06:28;53.03;;;22.27;;
1376;SDS011;682;52.502;13.488;2022-12-18T08:08:56;42.60;;;19.98;;
1376;SDS011;682;52.502;13.488;2022-12-18T08:11:25;40.00;;;21.05;;
1376;SDS011;682;52.502;13.488;2022-12-18T08:13:53;41.65;;;20.88;;
1376;SDS011;682;52.502;13.488;2022-12-18T08:16:23;40.67;;;20.15;;
1376;SDS011;682;52.502;13.488;2022-12-18T08:18:51;36.42;;;20.50;;
1376;SDS011;682;52.502;13.488;2022-12-18T08:21:27;37.55;;;19.58;;
1376;SDS011;682;52.502;13.488;2022-12-18T08:23:56;41.45;;;19.90;;
1376;SDS011;682;52.502;13.488;2022-12-18T08:26:30;39.47;;;18.80;;
1376;SDS011;682;52.502;13.488;2022-12-18T08:28:58;40.88;;;20.00;;
1376;SDS011;682;52.502;13.488;2022-12-18T08:31:30;46.30;;;19.80;;
1376;SDS011;682;52.502;13.488;2022-12-18T08:33:58;44.65;;;21.75;;
1376;SDS011;682;52.502;13.488;2022-12-18T08:36:31;42.05;;;20.00;;
1376;SDS011;682;52.502;13.488;2022-12-18T08:39:04;40.63;;;20.88;;
1376;SDS011;682;52.502;13.488;2022-12-18T08:41:32;45.67;;;21.80;;
1376;SDS011;682;52.502;13.488;2022-12-18T08:44:08;42.05;;;20.70;;
1376;SDS011;682;52.502;13.488;2022-12-18T08:46:53;46.08;;;19.75;;
1376;SDS011;682;52.502;13.488;2022-12-18T08:49:24;43.67;;;20.02;;
1376;SDS011;682;52.502;13.488;2022-12-18T08:51:55;40.42;;;20.95;;
1376;SDS011;682;52.502;13.488;2022-12-18T08:54:23;39.38;;;18.40;;
1376;SDS011;682;52.502;13.488;2022-12-18T08:56:51;38.30;;;19.90;;
1376;SDS011;682;52.502;13.488;2022-12-18T08:59:18;39.67;;;18.35;;
1376;SDS011;682;52.502;13.488;2022-12-18T09:01:46;39.42;;;18.40;;
1376;SDS011;682;52.502;13.488;2022-12-18T09:04:13;49.47;;;21.42;;
1376;SDS011;682;52.502;13.488;2022-12-18T09:06:41;42.42;;;18.90;;
1376;SDS011;682;52.502;13.488;2022-12-18T09:09:09;39.90;;;19.20;;
1376;SDS011;682;52.502;13.488;2022-12-18T09:11:37;39.17;;;18.70;;
1376;SDS011;682;52.502;13.488;2022-12-18T09:14:04;33.65;;;17.10;;
1376;SDS011;682;52.502;13.488;2022-12-18T09:16:32;43.97;;;20.98;;
1376;SDS011;682;52.502;13.488;2022-12-18T09:19:04;42.60;;;19.75;;
1376;SDS011;682;52.502;13.488;2022-12-18T09:21:32;44.70;;;20.42;;
1376;SDS011;682;52.502;13.488;2022-12-18T09:24:08;43.38;;;18.83;;
1376;SDS011;682;52.502;13.488;2022-12-18T09:26:44;41.20;;;20.45;;
1376;SDS011;682;52.502;13.488;2022-12-18T09:29:11;41.45;;;21.02;;
1376;SDS011;682;52.502;13.488;2022-12-18T09:31:38;39.92;;;20.48;;
1376;SDS011;682;52.502;13.488;2022-12-18T09:34:05;42.13;;;20.30;;
1376;SDS011;682;52.502;13.488;2022-12-18T09:36:34;40.20;;;20.77;;
1376;SDS011;682;52.502;13.488;2022-12-18T09:39:02;40.00;;;19.90;;
1376;SDS011;682;52.502;13.488;2022-12-18T09:41:39;44.83;;;23.30;;
1376;SDS011;682;52.502;13.488;2022-12-18T09:44:23;48.17;;;21.75;;
1376;SDS011;682;52.502;13.488;2022-12-18T09:46:57;43.60;;;22.45;;
1376;SDS011;682;52.502;13.488;2022-12-18T09:49:40;44.78;;;22.70;;
1376;SDS011;682;52.502;13.488;2022-12-18T09:52:12;44.05;;;21.20;;
1376;SDS011;682;52.502;13.488;2022-12-18T09:54:44;47.35;;;22.38;;
1376;SDS011;682;52.502;13.488;2022-12-18T09:57:21;43.17;;;21.52;;
1376;SDS011;682;52.502;13.488;2022-12-18T09:59:54;42.50;;;21.88;;
1376;SDS011;682;52.502;13.488;2022-12-18T10:02:25;42.13;;;20.73;;
1376;SDS011;682;52.502;13.488;2022-12-18T10:05:03;45.50;;;21.75;;
1376;SDS011;682;52.502;13.488;2022-12-18T10:07:51;43.08;;;21.70;;
1376;SDS011;682;52.502;13.488;2022-12-18T10:10:29;45.97;;;22.55;;
1376;SDS011;682;52.502;13.488;2022-12-18T10:16:06;39.42;;;20.30;;
1376;SDS011;682;52.502;13.488;2022-12-18T10:21:39;52.22;;;23.20;;
1376;SDS011;682;52.502;13.488;2022-12-18T10:24:17;46.53;;;21.50;;
1376;SDS011;682;52.502;13.488;2022-12-18T10:26:54;45.55;;;22.67;;
1376;SDS011;682;52.502;13.488;2022-12-18T10:29:32;50.97;;;23.88;;
1376;SDS011;682;52.502;13.488;2022-12-18T10:32:07;43.45;;;21.80;;
1376;SDS011;682;52.502;13.488;2022-12-18T10:34:45;47.55;;;23.23;;
1376;SDS011;682;52.502;13.488;2022-12-18T10:37:14;43.13;;;20.77;;
1376;SDS011;682;52.502;13.488;2022-12-18T10:40:06;59.28;;;25.65;;
1376;SDS011;682;52.502;13.488;2022-12-18T10:42:39;51.33;;;24.45;;
1376;SDS011;682;52.502;13.488;2022-12-18T10:45:11;51.70;;;23.73;;
1376;SDS011;682;52.502;13.488;2022-12-18T10:47:43;52.92;;;26.40;;
1376;SDS011;682;52.502;13.488;2022-12-18T10:50:18;43.92;;;21.00;;
1376;SDS011;682;52.502;13.488;2022-12-18T10:52:54;42.00;;;21.60;;
1376;SDS011;682;52.502;13.488;2022-12-18T10:55:24;46.97;;;22.58;;
1376;SDS011;682;52.502;13.488;2022-12-18T10:58:01;36.08;;;20.25;;
1376;SDS011;682;52.502;13.488;2022-12-18T11:03:59;39.83;;;20.27;;
1376;SDS011;682;52.502;13.488;2022-12-18T11:06:27;40.85;;;19.90;;
1376;SDS011;682;52.502;13.488;2022-12-18T11:09:03;42.75;;;20.58;;
1376;SDS011;682;52.502;13.488;2022-12-18T11:12:00;43.28;;;22.52;;
1376;SDS011;682;52.502;13.488;2022-12-18T11:14:48;37.72;;;20.05;;
1376;SDS011;682;52.502;13.488;2022-12-18T11:17:29;43.40;;;22.55;;
1376;SDS011;682;52.502;13.488;2022-12-18T11:20:18;45.92;;;21.00;;
1376;SDS011;682;52.502;13.488;2022-12-18T11:22:59;37.92;;;19.45;;
1376;SDS011;682;52.502;13.488;2022-12-18T11:25:38;41.28;;;19.33;;
1376;SDS011;682;52.502;13.488;2022-12-18T11:28:26;39.22;;;21.05;;
1376;SDS011;682;52.502;13.488;2022-12-18T12:18:08;33.70;;;15.82;;
1376;SDS011;682;52.502;13.488;2022-12-18T12:20:59;34.08;;;16.63;;
1376;SDS011;682;52.502;13.488;2022-12-18T12:23:39;32.65;;;17.95;;
1376;SDS011;682;52.502;13.488;2022-12-18T12:26:21;31.08;;;19.23;;
1376;SDS011;682;52.502;13.488;2022-12-18T12:32:04;36.50;;;16.75;;
1376;SDS011;682;52.502;13.488;2022-12-18T12:34:52;36.85;;;17.13;;
1376;SDS011;682;52.502;13.488;2022-12-18T12:37:50;33.15;;;17.90;;
1376;SDS011;682;52.502;13.488;2022-12-18T12:40:30;33.50;;;17.67;;
1376;SDS011;682;52.502;13.488;2022-12-18T12:43:11;32.15;;;17.20;;
1376;SDS011;682;52.502;13.488;2022-12-18T12:45:50;32.03;;;16.08;;
1376;SDS011;682;52.502;13.488;2022-12-18T12:48:32;34.60;;;18.20;;
1376;SDS011;682;52.502;13.488;2022-12-18T12:51:41;34.03;;;17.90;;
1376;SDS011;682;52.502;13.488;2022-12-18T12:54:38;38.08;;;19.35;;
1376;SDS011;682;52.502;13.488;2022-12-18T12:57:07;33.53;;;18.80;;
1376;SDS011;682;52.502;13.488;2022-12-18T13:00:04;33.92;;;18.23;;
1376;SDS011;682;52.502;13.488;2022-12-18T13:06:02;35.35;;;20.10;;
1376;SDS011;682;52.502;13.488;2022-12-18T13:21:52;30.45;;;17.45;;
1376;SDS011;682;52.502;13.488;2022-12-18T13:24:41;31.25;;;16.38;;
1376;SDS011;682;52.502;13.488;2022-12-18T13:27:46;31.60;;;17.48;;
1376;SDS011;682;52.502;13.488;2022-12-18T13:30:44;28.67;;;18.58;;
1376;SDS011;682;52.502;13.488;2022-12-18T13:57:29;39.85;;;21.17;;
1376;SDS011;682;52.502;13.488;2022-12-18T14:03:37;39.38;;;21.75;;
1376;SDS011;682;52.502;13.488;2022-12-18T14:06:28;37.30;;;21.88;;
1376;SDS011;682;52.502;13.488;2022-12-18T14:09:20;33.22;;;20.10;;
1376;SDS011;682;52.502;13.488;2022-12-18T14:19:09;30.02;;;18.00;;
1376;SDS011;682;52.502;13.488;2022-12-18T14:22:02;34.35;;;19.73;;
1376;SDS011;682;52.502;13.488;2022-12-18T14:25:20;34.22;;;21.40;;
1376;SDS011;682;52.502;13.488;2022-12-18T14:27:51;34.45;;;22.65;;
1376;SDS011;682;52.502;13.488;2022-12-18T14:30:28;28.80;;;17.50;;
1376;SDS011;682;52.502;13.488;2022-12-18T14:33:00;36.85;;;20.67;;
1376;SDS011;682;52.502;13.488;2022-12-18T14:35:31;29.92;;;16.02;;
1376;SDS011;682;52.502;13.488;2022-12-18T14:40:59;33.35;;;18.95;;
1376;SDS011;682;52.502;13.488;2022-12-18T14:43:27;31.90;;;18.67;;
1376;SDS011;682;52.502;13.488;2022-12-18T14:45:58;38.80;;;21.58;;
1376;SDS011;682;52.502;13.488;2022-12-18T14:48:42;35.83;;;20.05;;
1376;SDS011;682;52.502;13.488;2022-12-18T14:51:28;37.80;;;19.15;;
1376;SDS011;682;52.502;13.488;2022-12-18T14:53:59;33.08;;;20.95;;
1376;SDS011;682;52.502;13.488;2022-12-18T14:56:28;30.48;;;19.42;;
1376;SDS011;682;52.502;13.488;2022-12-18T14:58:58;33.15;;;19.20;;
1376;SDS011;682;52.502;13.488;2022-12-18T15:01:29;33.05;;;19.30;;
1376;SDS011;682;52.502;13.488;2022-12-18T15:04:00;30.48;;;19.08;;
1376;SDS011;682;52.502;13.488;2022-12-18T15:06:32;33.67;;;18.95;;
1376;SDS011;682;52.502;13.488;2022-12-18T15:09:20;34.72;;;20.15;;
1376;SDS011;682;52.502;13.488;2022-12-18T15:11:59;32.33;;;18.77;;
1376;SDS011;682;52.502;13.488;2022-12-18T15:14:31;31.67;;;17.92;;
1376;SDS011;682;52.502;13.488;2022-12-18T15:17:05;33.30;;;19.70;;
1376;SDS011;682;52.502;13.488;2022-12-18T15:19:47;32.15;;;19.50;;
1376;SDS011;682;52.502;13.488;2022-12-18T15:22:25;35.85;;;19.25;;
1376;SDS011;682;52.502;13.488;2022-12-18T15:25:01;33.58;;;18.70;;
1376;SDS011;682;52.502;13.488;2022-12-18T15:27:47;30.60;;;17.52;;
1376;SDS011;682;52.502;13.488;2022-12-18T15:32:51;30.25;;;17.73;;
1376;SDS011;682;52.502;13.488;2022-12-18T15:35:23;31.38;;;16.67;;
1376;SDS011;682;52.502;13.488;2022-12-18T15:37:52;25.90;;;16.45;;
1376;SDS011;682;52.502;13.488;2022-12-18T15:40:29;27.50;;;14.48;;
1376;SDS011;682;52.502;13.488;2022-12-18T15:42:56;26.90;;;16.27;;
1376;SDS011;682;52.502;13.488;2022-12-18T15:45:41;29.15;;;17.83;;
1376;SDS011;682;52.502;13.488;2022-12-18T15:48:15;25.25;;;16.02;;
1376;SDS011;682;52.502;13.488;2022-12-18T15:50:50;31.10;;;17.60;;
1376;SDS011;682;52.502;13.488;2022-12-18T15:53:22;30.02;;;16.50;;
1376;SDS011;682;52.502;13.488;2022-12-18T15:55:53;32.63;;;16.70;;
1376;SDS011;682;52.502;13.488;2022-12-18T15:58:37;34.80;;;19.75;;
1376;SDS011;682;52.502;13.488;2022-12-18T16:01:04;30.55;;;18.30;;
1376;SDS011;682;52.502;13.488;2022-12-18T16:03:33;29.58;;;17.83;;
1376;SDS011;682;52.502;13.488;2022-12-18T16:06:00;28.70;;;16.50;;
1376;SDS011;682;52.502;13.488;2022-12-18T16:08:29;29.58;;;18.02;;
1376;SDS011;682;52.502;13.488;2022-12-18T16:10:57;29.70;;;18.17;;
1376;SDS011;682;52.502;13.488;2022-12-18T16:13:24;34.00;;;19.75;;
1376;SDS011;682;52.502;13.488;2022-12-18T16:15:53;34.08;;;21.02;;
1376;SDS011;682;52.502;13.488;2022-12-18T16:18:20;30.58;;;19.67;;
1376;SDS011;682;52.502;13.488;2022-12-18T16:20:48;32.40;;;19.52;;
1376;SDS011;682;52.502;13.488;2022-12-18T16:23:16;33.90;;;20.75;;
1376;SDS011;682;52.502;13.488;2022-12-18T16:25:51;31.52;;;19.15;;
1376;SDS011;682;52.502;13.488;2022-12-18T16:28:20;33.60;;;19.98;;
1376;SDS011;682;52.502;13.488;2022-12-18T16:30:49;37.75;;;20.33;;
1376;SDS011;682;52.502;13.488;2022-12-18T16:33:19;31.02;;;18.20;;
1376;SDS011;682;52.502;13.488;2022-12-18T16:35:51;30.67;;;18.35;;
1376;SDS011;682;52.502;13.488;2022-12-18T16:38:30;33.55;;;21.05;;
1376;SDS011;682;52.502;13.488;2022-12-18T16:41:00;33.55;;;21.70;;
1376;SDS011;682;52.502;13.488;2022-12-18T16:43:41;34.50;;;22.80;;
1376;SDS011;682;52.502;13.488;2022-12-18T16:46:09;33.33;;;20.65;;
1376;SDS011;682;52.502;13.488;2022-12-18T16:48:37;35.78;;;22.40;;
1376;SDS011;682;52.502;13.488;2022-12-18T16:51:09;34.60;;;21.35;;
1376;SDS011;682;52.502;13.488;2022-12-18T16:53:36;33.50;;;21.52;;
1376;SDS011;682;52.502;13.488;2022-12-18T16:56:13;32.38;;;20.38;;
1376;SDS011;682;52.502;13.488;2022-12-18T16:58:41;31.77;;;19.70;;
1376;SDS011;682;52.502;13.488;2022-12-18T17:01:09;39.65;;;23.20;;
1376;SDS011;682;52.502;13.488;2022-12-18T17:03:39;42.45;;;21.70;;
1376;SDS011;682;52.502;13.488;2022-12-18T17:06:09;34.20;;;20.45;;
1376;SDS011;682;52.502;13.488;2022-12-18T17:08:37;31.65;;;20.23;;
1376;SDS011;682;52.502;13.488;2022-12-18T17:11:13;48.80;;;30.25;;
1376;SDS011;682;52.502;13.488;2022-12-18T17:13:52;38.65;;;21.58;;
1376;SDS011;682;52.502;13.488;2022-12-18T17:16:21;33.20;;;20.90;;
1376;SDS011;682;52.502;13.488;2022-12-18T17:18:59;34.58;;;20.67;;
1376;SDS011;682;52.502;13.488;2022-12-18T17:21:29;38.20;;;21.42;;
1376;SDS011;682;52.502;13.488;2022-12-18T17:24:01;36.17;;;21.10;;